Time;durP1;ratioP1;P1;durP2;ratioP2;P2;SDS_P1;SDS_P2;PMS_P1;PMS_P2;Temp;Humidity;BMP_temperature;BMP_pressure;BME280_temperature;BME280_humidity;BME280_pressure;Samples;Min_cycle;Max_cycle;Signal;HPM_P1;HPM_P2
2023/01/15 00:00:02;;;;;;;4.75;4.35;;;3.30;99.90;;;;;;5059539;28;20222;-76
2023/01/15 00:02:31;;;;;;;4.63;4.32;;;3.30;99.90;;;;;;5056134;28;20225;-74
2023/01/15 00:05:01;;;;;;;5.55;5.15;;;3.30;99.90;;;;;;5057952;28;20593;-76
2023/01/15 00:07:28;;;;;;;4.47;4.18;;;3.30;99.90;;;;;;5062467;28;20582;-74
2023/01/15 00:09:55;;;;;;;4.65;4.35;;;3.30;99.90;;;;;;5058713;28;20234;-74
2023/01/15 00:12:22;;;;;;;4.57;4.28;;;3.30;99.90;;;;;;5058493;28;20685;-74
2023/01/15 00:14:49;;;;;;;4.65;4.35;;;3.30;99.90;;;;;;5058088;28;20234;-74
2023/01/15 00:17:18;;;;;;;5.10;4.68;;;3.30;99.90;;;;;;5060859;28;20190;-73
2023/01/15 00:19:46;;;;;;;4.95;4.65;;;3.30;99.90;;;;;;5058704;28;20713;-74
2023/01/15 00:22:13;;;;;;;4.75;4.35;;;3.30;99.90;;;;;;5052591;28;20194;-76
2023/01/15 00:27:39;;;;;;;4.68;4.38;;;3.30;99.90;;;;;;5060483;28;20311;-78
2023/01/15 00:30:09;;;;;;;4.97;4.68;;;3.30;99.90;;;;;;5059451;28;20227;-71
2023/01/15 00:32:38;;;;;;;4.63;4.32;;;3.40;99.90;;;;;;5058045;28;20199;-76
2023/01/15 00:35:06;;;;;;;5.03;4.63;;;3.40;99.90;;;;;;5059629;28;20226;-73
2023/01/15 00:37:33;;;;;;;4.40;4.07;;;3.40;99.90;;;;;;5060852;28;20203;-76
2023/01/15 00:40:00;;;;;;;4.60;4.30;;;3.40;99.90;;;;;;5063764;28;20210;-73
2023/01/15 00:42:27;;;;;;;4.72;4.32;;;3.30;99.90;;;;;;5058824;28;20617;-73
2023/01/15 00:44:54;;;;;;;4.60;4.30;;;3.30;99.90;;;;;;5063877;28;20225;-72
2023/01/15 00:47:21;;;;;;;5.18;4.40;;;3.30;99.90;;;;;;5057947;28;20199;-74
2023/01/15 00:49:50;;;;;;;5.15;4.75;;;3.30;99.90;;;;;;5057872;28;20226;-73
2023/01/15 00:52:17;;;;;;;4.60;4.28;;;3.30;99.90;;;;;;5065654;28;20217;-73
2023/01/15 00:54:44;;;;;;;5.00;4.55;;;3.30;99.90;;;;;;5055304;28;20221;-72
2023/01/15 00:57:11;;;;;;;5.75;5.25;;;3.30;99.90;;;;;;5062431;28;20206;-75
2023/01/15 00:59:38;;;;;;;5.40;4.90;;;3.20;99.90;;;;;;5058835;28;20230;-74
2023/01/15 01:02:05;;;;;;;4.68;4.35;;;3.20;99.90;;;;;;5062174;28;20191;-76
2023/01/15 01:04:32;;;;;;;5.20;4.80;;;3.20;99.90;;;;;;5062710;28;20246;-75
2023/01/15 01:07:01;;;;;;;5.13;4.72;;;3.20;99.90;;;;;;5061263;28;20675;-77
2023/01/15 01:09:28;;;;;;;5.43;5.03;;;3.10;99.90;;;;;;5067483;28;20891;-72
2023/01/15 01:11:55;;;;;;;5.35;4.95;;;3.10;99.90;;;;;;5064469;28;20203;-74
2023/01/15 01:14:22;;;;;;;4.70;4.40;;;3.10;99.90;;;;;;5061731;28;20867;-78
2023/01/15 01:16:49;;;;;;;5.15;4.75;;;3.10;99.90;;;;;;5059758;28;20601;-75
2023/01/15 01:19:18;;;;;;;4.60;4.30;;;3.10;99.90;;;;;;5066271;28;20191;-75
2023/01/15 01:21:47;;;;;;;5.03;4.63;;;3.10;99.90;;;;;;5064409;28;20248;-74
2023/01/15 01:24:18;;;;;;;4.85;4.43;;;3.20;99.90;;;;;;5067374;28;20244;-76
2023/01/15 01:26:45;;;;;;;4.93;4.53;;;3.20;99.90;;;;;;5066842;28;20205;-73
2023/01/15 01:29:13;;;;;;;4.72;4.43;;;3.20;99.90;;;;;;5065246;28;20198;-73
2023/01/15 01:31:40;;;;;;;4.63;4.32;;;3.20;99.90;;;;;;5064791;28;20202;-76
2023/01/15 01:34:08;;;;;;;4.97;4.57;;;3.20;99.90;;;;;;5065468;28;20279;-76
2023/01/15 01:36:38;;;;;;;4.68;4.38;;;3.20;99.90;;;;;;5067742;28;20234;-76
2023/01/15 01:39:06;;;;;;;4.93;4.63;;;3.20;99.90;;;;;;5064669;28;20205;-73
2023/01/15 01:41:35;;;;;;;5.85;5.35;;;3.20;99.90;;;;;;5061508;28;20238;-74
2023/01/15 01:44:04;;;;;;;5.40;4.95;;;3.20;99.90;;;;;;5065913;28;20678;-74
2023/01/15 01:46:33;;;;;;;5.30;4.85;;;3.10;99.90;;;;;;5068346;28;20283;-73
2023/01/15 01:49:03;;;;;;;5.00;4.65;;;3.10;99.90;;;;;;5063280;28;20203;-74
2023/01/15 01:51:36;;;;;;;4.68;4.38;;;3.10;99.90;;;;;;5065174;28;20740;-74
2023/01/15 01:54:04;;;;;;;4.70;4.40;;;3.00;99.90;;;;;;5065252;28;20233;-77
2023/01/15 01:56:35;;;;;;;4.70;4.40;;;3.10;99.90;;;;;;5064249;28;20869;-72
2023/01/15 01:59:04;;;;;;;4.88;4.57;;;3.10;99.90;;;;;;5065168;28;20194;-74
2023/01/15 02:01:31;;;;;;;4.30;4.00;;;3.10;99.90;;;;;;5064260;28;20771;-75
2023/01/15 02:03:58;;;;;;;4.72;4.32;;;3.20;99.90;;;;;;5066522;28;20201;-77
2023/01/15 02:06:27;;;;;;;4.25;3.95;;;3.10;99.90;;;;;;5062671;28;20280;-76
2023/01/15 02:08:54;;;;;;;4.93;4.63;;;3.20;99.90;;;;;;5071405;28;20198;-76
2023/01/15 02:11:23;;;;;;;4.80;4.50;;;3.10;99.90;;;;;;5068097;28;20227;-73
2023/01/15 02:13:58;;;;;;;4.88;4.57;;;3.20;99.90;;;;;;5063199;28;20202;-73
2023/01/15 02:16:32;;;;;;;4.80;4.32;;;3.20;99.90;;;;;;5063903;28;20230;-73
2023/01/15 02:19:08;;;;;;;4.55;4.15;;;3.10;99.90;;;;;;5060134;28;21163;-77
2023/01/15 02:21:50;;;;;;;4.82;4.53;;;3.10;99.90;;;;;;5063063;28;20221;-75
2023/01/15 02:24:29;;;;;;;5.00;4.60;;;3.10;99.90;;;;;;5061817;28;20214;-72
2023/01/15 02:27:15;;;;;;;4.80;4.40;;;3.10;99.90;;;;;;5064574;28;20206;-74
2023/01/15 02:29:51;;;;;;;4.80;4.47;;;3.00;99.90;;;;;;5066558;28;20226;-73
2023/01/15 02:32:24;;;;;;;4.97;4.57;;;3.10;99.90;;;;;;5068831;28;20267;-73
2023/01/15 02:34:55;;;;;;;4.95;4.60;;;3.10;99.90;;;;;;5062678;28;20704;-76
2023/01/15 02:37:26;;;;;;;5.95;5.45;;;3.10;99.90;;;;;;5063306;28;20264;-75
2023/01/15 02:39:56;;;;;;;5.07;4.68;;;3.10;99.90;;;;;;5064165;28;20222;-74
2023/01/15 02:42:27;;;;;;;4.88;4.47;;;3.00;99.90;;;;;;5064810;28;20578;-77
2023/01/15 02:44:57;;;;;;;5.28;4.95;;;3.00;99.90;;;;;;5060602;28;20219;-74
2023/01/15 02:47:30;;;;;;;5.38;4.97;;;3.00;99.90;;;;;;5064020;28;20198;-73
2023/01/15 02:50:02;;;;;;;4.60;4.25;;;3.00;99.90;;;;;;5064231;28;20261;-74
2023/01/15 02:52:34;;;;;;;4.50;4.20;;;3.00;99.90;;;;;;5064861;28;20495;-75
2023/01/15 02:55:06;;;;;;;5.25;4.93;;;3.00;99.90;;;;;;5065483;28;20249;-73
2023/01/15 02:57:39;;;;;;;5.07;4.68;;;3.00;99.90;;;;;;5061646;28;20236;-73
2023/01/15 03:00:10;;;;;;;4.55;4.20;;;3.10;99.90;;;;;;5065642;28;20213;-72
2023/01/15 03:02:43;;;;;;;5.03;4.72;;;3.00;99.90;;;;;;5063912;28;20260;-74
2023/01/15 03:05:12;;;;;;;5.30;4.90;;;3.10;99.90;;;;;;5062755;28;20230;-72
2023/01/15 03:07:44;;;;;;;4.60;4.30;;;3.00;99.90;;;;;;5068001;28;20746;-74
2023/01/15 03:10:12;;;;;;;5.30;4.90;;;3.00;99.90;;;;;;5063366;28;20222;-73
2023/01/15 03:13:03;;;;;;;4.70;4.07;;;3.00;99.90;;;;;;5067875;28;20195;-74
2023/01/15 03:18:28;;;;;;;4.47;4.10;;;3.00;99.90;;;;;;5059706;28;20217;-74
2023/01/15 03:21:03;;;;;;;4.85;4.40;;;3.00;99.90;;;;;;5063354;28;20249;-71
2023/01/15 03:23:31;;;;;;;4.72;4.32;;;3.00;99.90;;;;;;5065281;28;20201;-74
2023/01/15 03:25:58;;;;;;;4.63;4.22;;;3.00;99.90;;;;;;5065595;28;20629;-75
2023/01/15 03:28:29;;;;;;;4.05;3.75;;;3.10;99.90;;;;;;5065162;28;20701;-73
2023/01/15 03:30:56;;;;;;;4.25;4.00;;;3.10;99.90;;;;;;5060572;28;20218;-73
2023/01/15 03:33:24;;;;;;;4.53;4.13;;;3.10;99.90;;;;;;5063304;28;20205;-74
2023/01/15 03:35:57;;;;;;;4.97;4.50;;;3.10;99.90;;;;;;5059838;28;20279;-72
2023/01/15 03:38:27;;;;;;;4.72;4.43;;;3.10;99.90;;;;;;5062797;28;20289;-72
2023/01/15 03:41:01;;;;;;;4.75;4.35;;;3.10;99.90;;;;;;5062338;28;20717;-72
2023/01/15 03:43:41;;;;;;;3.97;3.67;;;3.00;99.90;;;;;;5063382;28;20209;-73
2023/01/15 03:46:23;;;;;;;4.50;4.20;;;3.10;99.90;;;;;;5062960;28;20222;-72
2023/01/15 03:48:56;;;;;;;4.40;4.00;;;3.00;99.90;;;;;;5065385;28;20198;-74
2023/01/15 03:51:29;;;;;;;4.97;4.57;;;3.00;99.90;;;;;;5062041;28;20704;-73
2023/01/15 03:53:59;;;;;;;4.93;4.53;;;2.90;99.90;;;;;;5063173;28;20206;-74
2023/01/15 03:56:34;;;;;;;5.20;4.80;;;2.90;99.90;;;;;;5062150;28;20574;-73
2023/01/15 03:59:08;;;;;;;5.10;4.47;;;2.90;99.90;;;;;;5064222;28;20202;-74
2023/01/15 04:01:39;;;;;;;4.95;4.55;;;2.90;99.90;;;;;;5059233;28;20221;-72
2023/01/15 04:04:06;;;;;;;4.55;4.25;;;2.90;99.90;;;;;;5059969;28;20210;-74
2023/01/15 04:06:36;;;;;;;5.15;4.75;;;2.80;99.90;;;;;;5064227;28;20218;-74
2023/01/15 04:09:07;;;;;;;4.95;4.63;;;2.80;99.90;;;;;;5066973;28;20194;-73
2023/01/15 04:11:34;;;;;;;4.82;4.43;;;2.80;99.90;;;;;;5065510;28;20221;-73
2023/01/15 04:14:02;;;;;;;4.88;4.50;;;2.80;99.90;;;;;;5062000;28;20218;-73
2023/01/15 04:16:31;;;;;;;4.50;4.20;;;2.90;99.90;;;;;;5065390;28;20218;-75
2023/01/15 04:18:59;;;;;;;4.63;4.32;;;2.90;99.90;;;;;;5060048;28;20201;-73
2023/01/15 04:21:26;;;;;;;4.65;4.35;;;2.90;99.90;;;;;;5063029;28;20218;-73
2023/01/15 04:23:53;;;;;;;4.90;4.60;;;2.80;99.90;;;;;;5064783;28;20775;-72
2023/01/15 04:26:20;;;;;;;3.97;3.67;;;2.80;99.90;;;;;;5058447;28;20621;-76
2023/01/15 04:28:47;;;;;;;4.72;4.43;;;2.90;99.90;;;;;;5065353;28;20194;-72
2023/01/15 04:31:16;;;;;;;4.63;4.32;;;2.90;99.90;;;;;;5063309;28;20651;-74
2023/01/15 04:33:43;;;;;;;4.95;4.57;;;2.90;99.90;;;;;;5065646;28;20201;-75
2023/01/15 04:36:10;;;;;;;4.43;4.13;;;2.90;99.90;;;;;;5057343;28;20225;-76
2023/01/15 04:38:38;;;;;;;4.63;4.32;;;2.90;99.90;;;;;;5064579;28;20194;-73
2023/01/15 04:44:08;;;;;;;4.90;4.60;;;2.90;99.90;;;;;;5064039;28;20213;-76
2023/01/15 04:46:39;;;;;;;4.55;4.25;;;2.90;99.90;;;;;;5060570;28;20227;-73
2023/01/15 04:49:07;;;;;;;4.20;3.90;;;2.90;99.90;;;;;;5065328;28;20201;-75
2023/01/15 04:51:34;;;;;;;4.43;4.13;;;3.00;99.90;;;;;;5064855;28;20214;-75
2023/01/15 04:54:03;;;;;;;4.85;4.53;;;2.90;99.90;;;;;;5062652;28;20217;-76
2023/01/15 04:56:30;;;;;;;4.45;4.15;;;2.90;99.90;;;;;;5065413;28;20237;-73
2023/01/15 04:59:00;;;;;;;3.63;3.40;;;2.90;99.90;;;;;;5065502;28;20700;-72
2023/01/15 05:01:27;;;;;;;4.53;4.22;;;3.00;99.90;;;;;;5069261;28;20249;-75
2023/01/15 05:03:57;;;;;;;4.72;4.43;;;3.00;99.90;;;;;;5066095;28;20202;-72
2023/01/15 05:06:24;;;;;;;4.13;3.83;;;3.00;99.90;;;;;;5068417;28;20253;-73
2023/01/15 05:08:51;;;;;;;4.07;3.78;;;3.00;99.90;;;;;;5064700;28;20198;-74
2023/01/15 05:11:18;;;;;;;4.43;4.13;;;3.10;99.90;;;;;;5066168;28;20229;-72
2023/01/15 05:13:45;;;;;;;4.80;4.40;;;3.10;99.90;;;;;;5063981;28;20669;-73
2023/01/15 05:16:14;;;;;;;4.53;4.22;;;3.10;99.90;;;;;;5065047;28;20222;-73
2023/01/15 05:18:42;;;;;;;5.10;4.70;;;3.10;99.90;;;;;;5062715;28;20267;-72
2023/01/15 05:21:17;;;;;;;4.93;4.63;;;3.10;99.90;;;;;;5067098;28;20218;-72
2023/01/15 05:23:44;;;;;;;4.55;4.15;;;3.00;99.90;;;;;;5069366;28;20233;-75
2023/01/15 05:26:11;;;;;;;4.55;4.25;;;3.00;99.90;;;;;;5064670;28;20214;-76
2023/01/15 05:28:38;;;;;;;4.03;3.75;;;2.90;99.90;;;;;;5065142;28;21639;-73
2023/01/15 05:31:08;;;;;;;5.00;4.60;;;2.90;99.90;;;;;;5065852;28;20763;-73
2023/01/15 05:33:35;;;;;;;4.65;4.35;;;2.80;99.90;;;;;;5066256;28;20648;-75
2023/01/15 05:36:03;;;;;;;5.15;4.75;;;2.80;99.90;;;;;;5066627;28;20295;-72
2023/01/15 05:38:32;;;;;;;5.10;4.70;;;2.90;99.90;;;;;;5067689;28;20202;-76
2023/01/15 05:40:59;;;;;;;5.00;4.60;;;2.90;99.90;;;;;;5061475;28;20696;-75
2023/01/15 05:43:26;;;;;;;5.43;5.03;;;2.90;99.90;;;;;;5062176;28;20213;-71
2023/01/15 05:45:53;;;;;;;5.60;5.10;;;3.00;99.90;;;;;;5066522;28;20312;-75
2023/01/15 05:48:20;;;;;;;5.70;5.30;;;3.00;99.90;;;;;;5064235;28;20194;-71
2023/01/15 05:50:47;;;;;;;5.28;4.88;;;3.00;99.90;;;;;;5062945;28;20700;-72
2023/01/15 05:53:14;;;;;;;5.10;4.70;;;3.00;99.90;;;;;;5066779;28;20202;-72
2023/01/15 05:55:43;;;;;;;4.80;4.50;;;3.00;99.90;;;;;;5064200;28;20222;-73
2023/01/15 05:58:10;;;;;;;5.38;4.88;;;3.00;99.90;;;;;;5065629;28;20205;-72
2023/01/15 06:00:37;;;;;;;5.07;4.68;;;3.00;99.90;;;;;;5062097;28;20222;-73
2023/01/15 06:03:04;;;;;;;5.70;5.20;;;3.10;99.90;;;;;;5067953;28;20767;-72
2023/01/15 06:05:31;;;;;;;5.78;5.28;;;3.10;99.90;;;;;;5066056;28;20229;-73
2023/01/15 06:07:58;;;;;;;5.00;4.60;;;3.00;99.90;;;;;;5065108;28;20218;-71
2023/01/15 06:10:25;;;;;;;4.50;4.20;;;3.00;99.90;;;;;;5064810;28;20226;-73
2023/01/15 06:12:53;;;;;;;5.40;4.95;;;3.00;99.90;;;;;;5063943;28;20198;-74
2023/01/15 06:15:20;;;;;;;5.60;5.20;;;3.00;99.90;;;;;;5063896;28;20222;-72
2023/01/15 06:17:49;;;;;;;5.60;5.10;;;3.00;99.90;;;;;;5066199;28;20198;-75
2023/01/15 06:20:17;;;;;;;5.47;4.97;;;3.00;99.90;;;;;;5060082;28;20222;-74
2023/01/15 06:22:44;;;;;;;5.82;5.32;;;3.00;99.90;;;;;;5064619;28;20202;-70
2023/01/15 06:25:11;;;;;;;6.25;5.72;;;2.90;99.90;;;;;;5063814;28;20225;-74
2023/01/15 06:27:38;;;;;;;6.20;5.78;;;2.90;99.90;;;;;;5063812;28;20209;-73
2023/01/15 06:30:08;;;;;;;6.00;5.50;;;2.90;99.90;;;;;;5063024;28;20609;-73
2023/01/15 06:32:35;;;;;;;5.38;4.90;;;2.80;99.90;;;;;;5067416;28;20230;-71
2023/01/15 06:35:02;;;;;;;5.68;5.28;;;2.80;99.90;;;;;;5061569;28;20230;-71
2023/01/15 06:37:29;;;;;;;9.13;5.15;;;2.90;99.90;;;;;;5061983;28;20199;-72
2023/01/15 06:39:56;;;;;;;6.63;5.78;;;2.90;99.90;;;;;;5060659;28;20218;-74
2023/01/15 06:47:56;;;;;;;4.93;4.55;;;3.00;99.90;;;;;;5058459;28;20765;-72
2023/01/15 06:50:23;;;;;;;5.25;4.75;;;3.00;99.90;;;;;;5061958;28;20241;-74
2023/01/15 06:52:50;;;;;;;5.00;4.60;;;3.00;99.90;;;;;;5066367;28;20214;-73
2023/01/15 06:55:17;;;;;;;5.15;4.85;;;2.90;99.90;;;;;;5061111;28;20214;-76
2023/01/15 06:57:45;;;;;;;4.45;4.15;;;2.90;99.90;;;;;;5067282;28;20679;-76
2023/01/15 07:00:15;;;;;;;4.45;4.15;;;2.90;99.90;;;;;;5064793;28;20229;-74
2023/01/15 07:02:42;;;;;;;4.75;4.45;;;2.90;99.90;;;;;;5066267;28;20684;-71
2023/01/15 07:05:09;;;;;;;4.85;4.47;;;2.90;99.90;;;;;;5061129;28;20237;-73
2023/01/15 07:07:36;;;;;;;4.88;4.53;;;2.90;99.90;;;;;;5066435;28;20556;-72
2023/01/15 07:10:04;;;;;;;5.07;4.68;;;3.00;99.90;;;;;;5063066;28;20222;-73
2023/01/15 07:12:31;;;;;;;4.95;4.63;;;3.00;99.90;;;;;;5066740;28;20632;-74
2023/01/15 07:14:58;;;;;;;4.90;4.50;;;3.00;99.90;;;;;;5060491;28;20222;-71
2023/01/15 07:17:27;;;;;;;4.90;4.60;;;3.00;99.90;;;;;;5063375;28;20194;-75
2023/01/15 07:19:54;;;;;;;6.70;6.00;;;3.10;99.90;;;;;;5066745;28;20569;-72
2023/01/15 07:22:21;;;;;;;6.53;5.93;;;3.10;99.90;;;;;;5064787;28;20202;-72
2023/01/15 07:24:48;;;;;;;5.80;5.32;;;3.00;99.90;;;;;;5064030;28;21085;-76
2023/01/15 07:27:15;;;;;;;6.57;6.00;;;2.90;99.90;;;;;;5063328;28;20201;-73
2023/01/15 07:29:42;;;;;;;6.45;5.95;;;2.90;99.90;;;;;;5066514;28;20245;-71
2023/01/15 07:32:10;;;;;;;5.85;5.35;;;2.80;99.90;;;;;;5058666;28;20267;-73
2023/01/15 07:34:39;;;;;;;6.45;5.93;;;2.80;99.90;;;;;;5058532;28;20226;-73
2023/01/15 07:37:08;;;;;;;5.90;5.40;;;2.80;99.90;;;;;;5058681;28;20665;-73
2023/01/15 07:39:35;;;;;;;6.32;5.72;;;2.80;99.90;;;;;;5044806;28;20222;-73
2023/01/15 07:50:19;;;;;;;6.53;6.03;;;2.90;99.90;;;;;;5058168;28;20283;-72
2023/01/15 07:52:46;;;;;;;6.80;6.20;;;2.90;99.90;;;;;;5058652;28;20272;-74
2023/01/15 07:55:14;;;;;;;6.43;5.93;;;2.90;99.90;;;;;;5062040;28;20229;-72
2023/01/15 07:57:42;;;;;;;6.03;5.53;;;2.90;99.90;;;;;;5062584;28;20191;-73
2023/01/15 08:00:13;;;;;;;6.55;6.05;;;2.90;99.90;;;;;;5059667;28;20225;-72
2023/01/15 08:02:40;;;;;;;5.40;5.00;;;2.90;99.90;;;;;;5060061;28;20194;-72
2023/01/15 08:05:10;;;;;;;6.13;5.72;;;2.90;99.90;;;;;;5060836;28;20218;-74
2023/01/15 08:07:40;;;;;;;5.95;5.47;;;2.90;99.90;;;;;;5060941;28;20206;-73
2023/01/15 08:10:08;;;;;;;5.93;5.43;;;2.90;99.90;;;;;;5057481;28;20210;-73
2023/01/15 08:15:19;;;;;;;6.35;5.85;;;2.90;99.90;;;;;;5061985;28;20248;-71
2023/01/15 08:17:48;;;;;;;6.32;5.78;;;3.00;99.90;;;;;;5057402;28;20214;-74
2023/01/15 08:20:18;;;;;;;6.47;5.97;;;3.00;99.90;;;;;;5065438;28;20214;-73
2023/01/15 08:22:46;;;;;;;6.28;5.70;;;3.00;99.90;;;;;;5058222;28;20191;-74
2023/01/15 08:25:15;;;;;;;6.57;5.97;;;3.10;99.90;;;;;;5062997;28;20228;-76
2023/01/15 08:27:42;;;;;;;6.03;5.60;;;3.10;99.90;;;;;;5060984;28;20199;-77
2023/01/15 08:30:13;;;;;;;6.40;5.90;;;3.10;99.90;;;;;;5064921;28;20229;-72
2023/01/15 08:32:40;;;;;;;5.70;5.28;;;3.20;99.90;;;;;;5065427;28;20214;-73
2023/01/15 08:35:08;;;;;;;6.75;6.18;;;3.20;99.90;;;;;;5065233;28;20233;-70
2023/01/15 08:37:35;;;;;;;6.70;6.20;;;3.20;99.90;;;;;;5069174;28;20244;-73
2023/01/15 08:40:04;;;;;;;6.57;6.07;;;3.20;99.90;;;;;;5063828;28;20226;-72
2023/01/15 08:42:31;;;;;;;6.55;6.00;;;3.20;99.90;;;;;;5070407;28;20197;-74
2023/01/15 08:44:58;;;;;;;8.07;7.28;;;3.20;99.90;;;;;;5064860;28;20241;-73
2023/01/15 08:47:25;;;;;;;7.60;6.88;;;3.10;99.90;;;;;;5071215;28;20201;-76
2023/01/15 08:49:53;;;;;;;8.18;7.40;;;3.10;99.90;;;;;;5064925;28;20841;-73
2023/01/15 08:52:20;;;;;;;7.30;6.65;;;3.10;99.90;;;;;;5069431;28;20210;-76
2023/01/15 08:54:47;;;;;;;7.65;7.05;;;3.10;99.90;;;;;;5070050;28;20364;-73
2023/01/15 08:57:16;;;;;;;9.05;8.25;;;3.10;99.90;;;;;;5069567;28;20208;-73
2023/01/15 08:59:43;;;;;;;8.85;7.95;;;3.10;99.90;;;;;;5068839;28;20214;-73
2023/01/15 09:02:12;;;;;;;8.63;7.78;;;3.20;99.90;;;;;;5067323;28;20653;-74
2023/01/15 09:04:39;;;;;;;9.10;8.30;;;3.20;99.90;;;;;;5070165;28;20226;-78
2023/01/15 09:07:06;;;;;;;8.43;7.65;;;3.20;99.90;;;;;;5069027;28;20209;-73
2023/01/15 09:09:34;;;;;;;7.22;6.63;;;3.30;99.90;;;;;;5069588;28;20228;-75
2023/01/15 09:12:01;;;;;;;8.52;7.72;;;3.30;99.90;;;;;;5067117;28;20217;-77
2023/01/15 09:14:29;;;;;;;8.82;8.13;;;3.30;99.90;;;;;;5064919;28;20244;-76
2023/01/15 09:16:57;;;;;;;8.18;7.35;;;3.40;99.90;;;;;;5065073;28;20202;-73
2023/01/15 09:19:24;;;;;;;8.02;7.22;;;3.40;99.90;;;;;;5067030;28;20289;-73
2023/01/15 09:21:51;;;;;;;7.40;6.75;;;3.30;99.90;;;;;;5071979;28;20198;-76
2023/01/15 09:24:18;;;;;;;8.30;7.60;;;3.20;99.90;;;;;;5060961;28;20268;-73
2023/01/15 09:26:45;;;;;;;7.82;7.13;;;3.20;99.90;;;;;;5066679;28;20198;-75
2023/01/15 09:29:12;;;;;;;8.43;7.72;;;3.20;99.90;;;;;;5061437;28;20656;-74
2023/01/15 09:31:40;;;;;;;8.27;7.43;;;3.30;99.90;;;;;;5068668;28;20206;-77
2023/01/15 09:34:07;;;;;;;8.93;8.13;;;3.30;99.90;;;;;;5070241;28;20214;-77
2023/01/15 09:36:35;;;;;;;9.25;8.27;;;3.30;99.90;;;;;;5061459;28;20214;-73
2023/01/15 09:39:04;;;;;;;9.65;8.70;;;3.30;99.90;;;;;;5066707;28;20205;-73
2023/01/15 09:44:32;;;;;;;8.52;7.82;;;3.30;99.90;;;;;;5068532;28;20230;-73
2023/01/15 09:47:08;;;;;;;8.10;7.35;;;3.30;99.90;;;;;;5060763;28;20206;-77
2023/01/15 09:49:49;;;;;;;8.50;7.80;;;3.40;99.90;;;;;;5063007;28;20703;-74
2023/01/15 09:52:26;;;;;;;8.50;7.80;;;3.40;99.90;;;;;;5064919;28;20210;-74
2023/01/15 09:55:02;;;;;;;7.28;6.68;;;3.40;99.90;;;;;;5064186;28;20251;-73
2023/01/15 09:57:30;;;;;;;7.40;6.80;;;3.50;99.90;;;;;;5059523;28;20202;-75
2023/01/15 10:00:01;;;;;;;8.02;7.32;;;3.50;99.90;;;;;;5052016;28;20226;-73
2023/01/15 10:02:35;;;;;;;8.25;7.65;;;3.50;99.90;;;;;;5062067;28;20207;-75
2023/01/15 10:05:09;;;;;;;8.80;7.97;;;3.50;99.90;;;;;;5066404;28;20217;-73
2023/01/15 10:07:41;;;;;;;7.95;7.20;;;3.50;99.90;;;;;;5060302;28;20195;-75
2023/01/15 10:10:13;;;;;;;7.03;6.53;;;3.60;99.90;;;;;;5060321;28;20221;-77
2023/01/15 10:12:43;;;;;;;7.47;6.88;;;3.60;99.90;;;;;;5061487;28;20836;-74
2023/01/15 10:15:21;;;;;;;7.82;7.07;;;3.60;99.90;;;;;;5061637;28;20226;-76
2023/01/15 10:17:52;;;;;;;8.55;7.75;;;3.70;99.90;;;;;;5058064;28;20194;-76
2023/01/15 10:20:40;;;;;;;8.43;7.63;;;3.60;99.90;;;;;;5060678;28;20283;-76
2023/01/15 10:23:19;;;;;;;7.55;6.85;;;3.60;99.90;;;;;;5056674;28;20203;-75
2023/01/15 10:25:49;;;;;;;7.30;6.70;;;3.60;99.90;;;;;;5057693;28;20233;-73
2023/01/15 10:28:21;;;;;;;7.03;6.43;;;3.70;99.90;;;;;;5061339;28;20561;-74
2023/01/15 10:30:53;;;;;;;7.63;6.68;;;3.70;99.90;;;;;;5062147;28;20218;-72
2023/01/15 10:33:43;;;;;;;6.97;6.47;;;3.80;99.90;;;;;;5063331;28;20304;-75
2023/01/15 10:36:15;;;;;;;7.28;6.68;;;3.80;99.90;;;;;;5060760;28;20218;-75
2023/01/15 10:38:49;;;;;;;6.45;5.90;;;3.90;99.90;;;;;;5065878;28;20626;-78
2023/01/15 10:41:38;;;;;;;7.28;6.65;;;3.90;99.90;;;;;;5059647;28;20769;-74
2023/01/15 10:44:13;;;;;;;7.03;6.43;;;3.90;99.90;;;;;;5062777;28;20335;-75
2023/01/15 10:46:41;;;;;;;8.50;7.70;;;3.90;99.90;;;;;;5063698;28;20224;-77
2023/01/15 10:49:15;;;;;;;9.02;8.18;;;3.80;99.90;;;;;;5058617;28;20213;-72
2023/01/15 10:51:44;;;;;;;9.63;8.73;;;3.80;99.90;;;;;;5061160;28;20222;-78
2023/01/15 10:54:20;;;;;;;9.02;8.23;;;3.80;99.90;;;;;;5062990;28;20210;-72
2023/01/15 10:56:52;;;;;;;8.73;7.93;;;3.80;99.90;;;;;;5056267;28;20197;-77
2023/01/15 10:59:22;;;;;;;7.97;7.20;;;3.70;99.90;;;;;;5090534;22;20791;-71
2023/01/15 11:01:51;;;;;;;9.70;8.70;;;3.80;99.90;;;;;;5080397;28;20691;-68
2023/01/15 11:04:20;;;;;;;8.63;7.72;;;3.80;99.90;;;;;;5081868;28;20204;-70
2023/01/15 11:06:47;;;;;;;9.25;8.45;;;3.70;99.90;;;;;;5083493;28;20194;-71
2023/01/15 11:09:21;;;;;;;9.40;8.50;;;3.70;99.90;;;;;;5074895;28;20226;-71
2023/01/15 11:20:20;;;;;;;8.75;7.88;;;3.90;99.90;;;;;;5074735;28;20658;-69
2023/01/15 11:22:47;;;;;;;7.88;7.18;;;3.90;99.90;;;;;;5079408;28;20185;-69
2023/01/15 11:25:25;;;;;;;8.27;7.47;;;3.90;99.90;;;;;;5078519;28;20632;-69
2023/01/15 11:27:52;;;;;;;7.47;6.78;;;3.90;99.90;;;;;;5078339;28;20881;-69
2023/01/15 11:30:27;;;;;;;7.38;6.68;;;4.00;99.90;;;;;;5079920;28;20222;-69
2023/01/15 11:33:00;;;;;;;7.90;7.20;;;4.00;99.90;;;;;;5084264;28;20724;-69
2023/01/15 11:35:28;;;;;;;8.05;7.35;;;4.00;99.90;;;;;;5078922;28;20218;-69
2023/01/15 11:38:06;;;;;;;8.52;7.68;;;4.00;99.90;;;;;;5082606;28;20194;-69
2023/01/15 11:40:33;;;;;;;11.38;8.70;;;4.00;99.90;;;;;;5082051;28;20634;-70
2023/01/15 11:51:38;;;;;;;8.25;7.45;;;4.00;99.90;;;;;;5086782;28;20251;-69
2023/01/15 11:54:07;;;;;;;7.20;6.50;;;4.00;99.90;;;;;;5079922;28;20217;-69
2023/01/15 11:56:35;;;;;;;7.35;6.75;;;4.00;99.90;;;;;;5082422;28;20229;-69
2023/01/15 11:59:09;;;;;;;6.45;5.78;;;4.00;99.90;;;;;;5084785;28;20239;-69
2023/01/15 12:01:40;;;;;;;6.97;6.38;;;4.10;99.90;;;;;;5084556;28;20763;-69
2023/01/15 12:04:22;;;;;;;6.40;5.90;;;4.10;99.90;;;;;;5082805;28;20606;-69
2023/01/15 12:06:51;;;;;;;6.50;6.00;;;4.20;99.90;;;;;;5086280;28;20218;-69
2023/01/15 12:09:28;;;;;;;6.68;6.07;;;4.20;99.90;;;;;;5083535;28;20221;-69
2023/01/15 12:12:06;;;;;;;8.15;7.35;;;4.30;99.90;;;;;;5085972;28;20201;-69
2023/01/15 12:14:52;;;;;;;8.20;7.43;;;4.30;99.90;;;;;;5085217;28;20225;-69
2023/01/15 12:17:43;;;;;;;9.80;8.73;;;4.40;99.90;;;;;;5080160;28;20225;-69
2023/01/15 12:20:22;;;;;;;8.27;7.50;;;4.40;99.90;;;;;;5082047;28;20500;-69
2023/01/15 12:23:07;;;;;;;9.00;8.15;;;4.40;99.90;;;;;;5084343;28;20637;-69
2023/01/15 12:25:42;;;;;;;8.93;8.13;;;4.40;99.90;;;;;;5078580;28;20221;-69
2023/01/15 12:28:14;;;;;;;9.25;8.35;;;4.40;99.90;;;;;;5085327;28;20201;-69
2023/01/15 12:30:49;;;;;;;8.70;7.75;;;4.30;99.90;;;;;;5085917;28;20233;-68
2023/01/15 12:33:28;;;;;;;9.82;8.90;;;4.30;99.90;;;;;;5084860;28;20270;-69
2023/01/15 12:36:00;;;;;;;10.35;9.05;;;4.10;99.90;;;;;;5081790;28;20337;-69
2023/01/15 12:38:42;;;;;;;11.90;10.75;;;3.90;99.90;;;;;;5085489;28;20213;-69
2023/01/15 12:41:13;;;;;;;13.35;10.70;;;3.80;99.90;;;;;;5081828;28;20229;-69
2023/01/15 12:46:30;;;;;;;11.20;9.65;;;3.90;99.90;;;;;;5082759;28;20822;-69
2023/01/15 12:49:03;;;;;;;12.05;10.82;;;3.80;99.90;;;;;;5085996;28;20194;-69
2023/01/15 12:51:37;;;;;;;11.70;10.20;;;3.80;99.90;;;;;;5083147;28;20225;-69
2023/01/15 12:54:11;;;;;;;11.20;10.05;;;3.80;99.90;;;;;;5080890;28;20214;-69
2023/01/15 12:56:50;;;;;;;10.07;9.07;;;3.80;99.90;;;;;;5079498;28;20232;-69
2023/01/15 12:59:25;;;;;;;10.85;9.45;;;3.90;99.90;;;;;;5081724;28;20348;-69
2023/01/15 13:02:08;;;;;;;9.60;8.60;;;4.00;99.90;;;;;;5079152;28;20201;-69
2023/01/15 13:04:44;;;;;;;11.13;9.70;;;4.10;99.90;;;;;;5082046;28;20958;-69
2023/01/15 13:07:19;;;;;;;9.90;8.90;;;4.10;99.90;;;;;;5084348;28;20238;-69
2023/01/15 13:09:53;;;;;;;9.88;8.90;;;4.10;99.90;;;;;;5082202;28;20224;-69
2023/01/15 13:12:20;;;;;;;9.73;8.77;;;4.10;99.90;;;;;;5084976;28;20193;-70
2023/01/15 13:14:49;;;;;;;9.48;8.57;;;4.00;99.90;;;;;;5084903;28;20282;-69
2023/01/15 13:17:24;;;;;;;9.82;8.93;;;3.90;99.90;;;;;;5085641;28;20246;-69
2023/01/15 13:20:05;;;;;;;9.60;8.65;;;3.80;99.90;;;;;;5084547;28;20224;-69
2023/01/15 13:22:40;;;;;;;9.20;8.27;;;3.70;99.90;;;;;;5087432;28;20200;-69
2023/01/15 13:25:39;;;;;;;8.13;7.43;;;3.60;99.90;;;;;;5087267;28;20243;-69
2023/01/15 13:28:38;;;;;;;9.00;8.10;;;3.50;99.90;;;;;;5082322;28;20205;-69
2023/01/15 13:31:20;;;;;;;9.07;8.27;;;3.50;99.90;;;;;;5088627;28;20224;-69
2023/01/15 13:33:50;;;;;;;9.30;8.50;;;3.60;99.90;;;;;;5087341;28;20214;-69
2023/01/15 13:36:23;;;;;;;9.02;8.20;;;3.50;99.90;;;;;;5084730;28;20221;-69
2023/01/15 13:38:53;;;;;;;9.75;8.60;;;3.60;99.90;;;;;;5087863;28;20205;-69
2023/01/15 13:44:17;;;;;;;7.97;7.28;;;3.60;99.90;;;;;;5086048;28;20225;-70
2023/01/15 13:46:45;;;;;;;7.50;6.80;;;3.60;99.90;;;;;;5084029;28;20217;-69
2023/01/15 13:49:22;;;;;;;7.95;7.15;;;3.60;99.90;;;;;;5086558;28;20221;-67
2023/01/15 13:51:50;;;;;;;7.95;7.20;;;3.80;99.90;;;;;;5088180;28;20712;-67
2023/01/15 13:54:21;;;;;;;9.25;7.88;;;3.80;99.90;;;;;;5086087;28;20214;-67
2023/01/15 13:56:50;;;;;;;8.15;7.38;;;3.90;99.90;;;;;;5089050;28;20216;-67
2023/01/15 13:59:38;;;;;;;7.05;6.45;;;3.90;99.90;;;;;;5086591;28;20226;-67
2023/01/15 14:02:24;;;;;;;7.78;7.07;;;3.90;99.90;;;;;;5086841;28;20733;-67